createdAt,value
2022-12-04T00:00:31.384Z,62.54
2022-12-04T00:03:01.900Z,62.70
2022-12-04T00:05:32.488Z,62.64
2022-12-04T00:08:03.812Z,62.61
2022-12-04T00:10:34.520Z,62.62
2022-12-04T00:13:04.923Z,62.65
2022-12-04T00:15:35.368Z,62.55
2022-12-04T00:18:06.347Z,62.70
2022-12-04T00:20:39.628Z,62.98
2022-12-04T00:23:10.382Z,62.90
2022-12-04T00:25:41.537Z,63.01
2022-12-04T00:28:12.210Z,63.06
2022-12-04T00:30:45.542Z,63.02
2022-12-04T00:33:16.250Z,62.88
2022-12-04T00:35:46.725Z,63.21
2022-12-04T00:38:17.175Z,63.10
2022-12-04T00:40:52.654Z,63.03
2022-12-04T00:43:23.989Z,62.94
2022-12-04T00:45:54.513Z,62.95
2022-12-04T00:48:25.372Z,62.92
2022-12-04T00:50:56.103Z,62.89
2022-12-04T00:53:26.533Z,62.73
2022-12-04T00:55:57.008Z,62.82
2022-12-04T00:58:27.464Z,63.01
2022-12-04T01:01:05.078Z,62.74
2022-12-04T01:03:36.469Z,63.11
2022-12-04T01:06:08.765Z,63.15
2022-12-04T01:08:39.220Z,62.96
2022-12-04T01:11:09.906Z,62.95
2022-12-04T01:13:40.351Z,63.13
2022-12-04T01:16:16.249Z,62.95
2022-12-04T01:18:46.955Z,63.20
2022-12-04T01:21:18.113Z,63.21
2022-12-04T01:23:48.630Z,63.04
2022-12-04T01:26:19.157Z,63.04
2022-12-04T01:28:49.726Z,63.04
2022-12-04T01:31:22.298Z,63.22
2022-12-04T01:33:53.755Z,63.27
2022-12-04T01:36:26.127Z,63.27
2022-12-04T01:38:57.351Z,63.38
2022-12-04T01:41:30.343Z,63.47
2022-12-04T01:44:17.800Z,63.42
2022-12-04T01:46:51.490Z,63.59
2022-12-04T01:49:26.650Z,63.67
2022-12-04T01:52:00.081Z,63.59
2022-12-04T01:54:32.804Z,63.66
2022-12-04T01:57:07.987Z,63.84
2022-12-04T01:59:46.460Z,64.18
2022-12-04T02:02:20.500Z,63.99
2022-12-04T02:04:51.506Z,64.28
2022-12-04T02:07:21.919Z,64.36
2022-12-04T02:09:56.268Z,64.36
2022-12-04T02:12:37.524Z,64.31
2022-12-04T02:15:14.947Z,64.36
2022-12-04T02:17:54.989Z,64.54
2022-12-04T02:20:34.282Z,64.58
2022-12-04T02:23:26.952Z,64.49
2022-12-04T02:26:04.979Z,64.46
2022-12-04T02:28:45.423Z,64.54
2022-12-04T02:31:20.844Z,64.31
2022-12-04T02:33:59.303Z,64.49
2022-12-04T02:36:34.259Z,64.53
2022-12-04T02:39:10.885Z,64.72
2022-12-04T02:41:47.259Z,64.52
2022-12-04T02:44:21.984Z,64.52
2022-12-04T02:46:57.002Z,64.68
2022-12-04T02:49:33.191Z,64.48
2022-12-04T02:52:09.045Z,64.34
2022-12-04T02:54:43.600Z,64.34
2022-12-04T02:57:20.026Z,64.34
2022-12-04T02:59:53.638Z,64.24
2022-12-04T03:02:30.586Z,64.20
2022-12-04T03:05:06.262Z,64.21
2022-12-04T03:07:42.191Z,64.22
2022-12-04T03:10:17.372Z,64.33
2022-12-04T03:12:53.221Z,64.17
2022-12-04T03:15:28.763Z,64.03
2022-12-04T03:18:04.213Z,64.24
2022-12-04T03:20:37.654Z,64.27
2022-12-04T03:23:14.089Z,64.46
2022-12-04T03:25:52.658Z,64.49
2022-12-04T03:28:32.551Z,64.52
2022-12-04T03:31:09.513Z,64.56
2022-12-04T03:33:43.337Z,64.59
2022-12-04T03:36:21.141Z,64.46
2022-12-04T03:38:57.709Z,64.56
2022-12-04T03:41:33.859Z,64.67
2022-12-04T03:44:12.212Z,64.77
2022-12-04T03:46:49.180Z,64.95
2022-12-04T03:49:24.226Z,64.98
2022-12-04T03:52:00.549Z,64.90
2022-12-04T03:54:34.722Z,64.95
2022-12-04T03:57:12.476Z,64.98
2022-12-04T03:59:53.944Z,64.98
2022-12-04T04:02:34.199Z,65.04
2022-12-04T04:05:10.704Z,65.13
2022-12-04T04:07:48.846Z,65.21
2022-12-04T04:10:21.982Z,65.21
2022-12-04T04:13:12.369Z,65.15
2022-12-04T04:16:07.722Z,65.26
2022-12-04T04:18:57.106Z,65.26
2022-12-04T04:21:50.947Z,65.26
2022-12-04T04:24:34.474Z,65.35
2022-12-04T04:27:06.126Z,65.43
2022-12-04T04:29:37.148Z,65.14
2022-12-04T04:32:14.403Z,65.37
2022-12-04T04:34:55.855Z,65.32
2022-12-04T04:37:35.195Z,65.28
2022-12-04T04:40:13.381Z,65.52
2022-12-04T04:42:51.809Z,65.50
2022-12-04T04:45:27.842Z,65.47
2022-12-04T04:48:05.270Z,65.38
2022-12-04T04:50:37.148Z,65.70
2022-12-04T04:53:10.824Z,65.65
2022-12-04T04:55:42.176Z,65.56
2022-12-04T04:58:14.844Z,65.65
2022-12-04T05:00:51.925Z,65.80
2022-12-04T05:03:22.433Z,65.67
2022-12-04T05:05:52.895Z,65.87
2022-12-04T05:08:23.718Z,65.79
2022-12-04T05:10:54.189Z,65.75
2022-12-04T05:13:25.285Z,65.83
2022-12-04T05:16:03.611Z,65.77
2022-12-04T05:18:35.667Z,65.75
2022-12-04T05:21:09.427Z,65.88
2022-12-04T05:23:39.834Z,65.95
2022-12-04T05:26:12.186Z,66.01
2022-12-04T05:28:42.633Z,65.90
2022-12-04T05:31:13.071Z,66.00
2022-12-04T05:33:43.601Z,66.13
2022-12-04T05:36:14.375Z,66.12
2022-12-04T05:38:44.838Z,66.15
2022-12-04T05:41:15.265Z,66.14
2022-12-04T05:43:45.795Z,66.24
2022-12-04T05:46:16.927Z,66.21
2022-12-04T05:48:47.530Z,66.36
2022-12-04T05:51:18.325Z,66.45
2022-12-04T05:53:48.773Z,66.43
2022-12-04T05:56:19.253Z,66.53
2022-12-04T05:58:49.996Z,66.62
2022-12-04T06:01:23.797Z,66.52
2022-12-04T06:03:54.198Z,66.77
2022-12-04T06:06:26.702Z,67.00
2022-12-04T06:09:00.885Z,66.98
2022-12-04T06:11:33.235Z,67.19
2022-12-04T06:14:05.872Z,67.22
2022-12-04T06:16:36.774Z,67.21
2022-12-04T06:19:10.395Z,67.07
2022-12-04T06:21:42.940Z,67.17
2022-12-04T06:24:16.553Z,67.06
2022-12-04T06:27:18.783Z,67.20
2022-12-04T06:29:38.095Z,67.18
2022-12-04T06:32:08.757Z,67.09
2022-12-04T06:34:39.502Z,66.96
2022-12-04T06:37:10.153Z,66.96
2022-12-04T06:39:40.684Z,67.10
2022-12-04T06:42:11.073Z,67.09
2022-12-04T06:44:41.474Z,67.07
2022-12-04T06:47:12.353Z,67.16
2022-12-04T06:49:42.881Z,67.16
2022-12-04T06:52:13.345Z,67.32
2022-12-04T06:54:45.185Z,67.32
2022-12-04T06:57:15.581Z,67.29
2022-12-04T06:59:46.030Z,67.25
2022-12-04T07:02:16.557Z,67.21
2022-12-04T07:04:47.332Z,67.33
2022-12-04T07:07:17.772Z,67.50
2022-12-04T07:09:48.374Z,67.53
2022-12-04T07:12:18.982Z,67.50
2022-12-04T07:14:49.526Z,67.55
2022-12-04T07:17:19.946Z,67.61
2022-12-04T07:19:50.479Z,67.81
2022-12-04T07:22:21.002Z,67.81
2022-12-04T07:24:51.417Z,67.71
2022-12-04T07:27:21.846Z,67.77
2022-12-04T07:29:54.298Z,67.79
2022-12-04T07:32:24.987Z,67.61
2022-12-04T07:34:55.491Z,67.42
2022-12-04T07:37:25.960Z,67.44
2022-12-04T07:39:56.638Z,67.65
2022-12-04T07:42:27.410Z,67.75
2022-12-04T07:44:57.919Z,67.74
2022-12-04T07:47:28.351Z,67.79
2022-12-04T07:49:58.923Z,67.75
2022-12-04T07:52:29.471Z,67.78
2022-12-04T07:55:00.329Z,67.65
2022-12-04T07:57:31.660Z,67.77
2022-12-04T08:00:02.358Z,67.66
2022-12-04T08:02:42.581Z,67.70
2022-12-04T08:05:13.037Z,67.79
2022-12-04T08:07:43.534Z,67.48
2022-12-04T08:10:14.664Z,67.39
2022-12-04T08:12:45.212Z,67.28
2022-12-04T08:15:15.629Z,67.30
2022-12-04T08:17:46.076Z,67.17
2022-12-04T08:20:16.699Z,67.13
2022-12-04T08:22:47.136Z,67.06
2022-12-04T08:25:18.420Z,67.10
2022-12-04T08:27:48.869Z,67.07
2022-12-04T08:30:20.110Z,67.21
2022-12-04T08:32:50.533Z,67.24
2022-12-04T08:35:21.037Z,67.14
2022-12-04T08:37:51.461Z,67.26
2022-12-04T08:40:21.944Z,67.27
2022-12-04T08:42:52.388Z,67.11
2022-12-04T08:45:22.853Z,67.07
2022-12-04T08:47:53.346Z,66.80
2022-12-04T08:50:24.315Z,66.80
2022-12-04T08:52:54.740Z,66.59
2022-12-04T08:55:25.200Z,66.58
2022-12-04T08:57:55.942Z,66.43
2022-12-04T09:00:27.352Z,66.23
2022-12-04T09:02:58.020Z,66.09
2022-12-04T09:05:28.530Z,66.09
2022-12-04T09:07:59.086Z,65.96
2022-12-04T09:10:29.624Z,65.84
2022-12-04T09:13:00.080Z,66.03
2022-12-04T09:15:30.890Z,65.92
2022-12-04T09:18:01.610Z,65.82
2022-12-04T09:20:32.281Z,65.74
2022-12-04T09:23:04.438Z,65.25
2022-12-04T09:25:38.401Z,65.45
2022-12-04T09:28:08.816Z,65.11
2022-12-04T09:30:39.362Z,65.49
2022-12-04T09:33:10.064Z,65.20
2022-12-04T09:35:42.068Z,64.88
2022-12-04T09:38:12.506Z,65.00
2022-12-04T09:40:52.156Z,64.85
2022-12-04T09:43:31.728Z,64.48
2022-12-04T09:46:09.744Z,64.56
2022-12-04T09:48:44.249Z,63.87
2022-12-04T09:51:20.433Z,63.96
2022-12-04T09:53:56.170Z,63.82
2022-12-04T09:56:31.494Z,63.44
2022-12-04T09:59:10.022Z,62.98
2022-12-04T10:01:46.004Z,63.06
2022-12-04T10:04:17.763Z,63.04
2022-12-04T10:06:54.400Z,63.04
2022-12-04T10:09:31.618Z,62.98
2022-12-04T10:12:17.431Z,62.79
2022-12-04T10:15:01.169Z,62.87
2022-12-04T10:17:43.233Z,63.12
2022-12-04T10:20:28.407Z,62.96
2022-12-04T10:23:12.283Z,62.92
2022-12-04T10:25:45.067Z,62.83
2022-12-04T10:28:24.326Z,62.61
2022-12-04T10:30:59.738Z,62.52
2022-12-04T10:33:36.896Z,62.59
2022-12-04T10:36:11.867Z,62.44
2022-12-04T10:38:48.537Z,62.25
2022-12-04T10:41:27.673Z,62.29
2022-12-04T10:43:58.309Z,62.20
2022-12-04T10:46:31.061Z,62.20
2022-12-04T10:49:05.120Z,62.27
2022-12-04T10:51:42.450Z,62.13
2022-12-04T10:54:21.813Z,62.07
2022-12-04T10:56:57.434Z,62.53
2022-12-04T10:59:30.411Z,62.97
2022-12-04T11:02:13.512Z,62.71
2022-12-04T11:04:44.551Z,62.73
2022-12-04T11:07:23.377Z,62.37
2022-12-04T11:10:01.636Z,61.96
2022-12-04T11:12:33.588Z,61.33
2022-12-04T11:15:13.396Z,61.14
2022-12-04T11:17:43.938Z,61.13
2022-12-04T11:20:20.082Z,60.68
2022-12-04T11:22:57.008Z,60.34
2022-12-04T11:25:31.604Z,60.22
2022-12-04T11:28:04.758Z,60.43
2022-12-04T11:30:38.528Z,60.12
2022-12-04T11:33:19.395Z,60.02
2022-12-04T11:35:58.799Z,59.44
2022-12-04T11:38:31.708Z,59.92
2022-12-04T11:41:07.294Z,59.82
2022-12-04T11:43:38.011Z,59.87
2022-12-04T11:46:21.153Z,59.87
2022-12-04T11:48:52.702Z,59.86
2022-12-04T11:51:35.207Z,60.04
2022-12-04T11:54:16.399Z,60.16
2022-12-04T11:56:51.822Z,60.19
2022-12-04T11:59:46.239Z,60.39
2022-12-04T12:02:34.257Z,60.30
2022-12-04T12:05:20.073Z,60.38
2022-12-04T12:08:03.020Z,60.33
2022-12-04T12:10:45.113Z,60.44
2022-12-04T12:13:24.704Z,60.37
2022-12-04T12:16:05.436Z,60.47
2022-12-04T12:18:57.915Z,60.36
2022-12-04T12:21:35.410Z,60.30
2022-12-04T12:24:21.912Z,60.66
2022-12-04T12:27:02.094Z,60.29
2022-12-04T12:29:44.853Z,60.42
2022-12-04T12:32:29.583Z,60.17
2022-12-04T12:35:01.402Z,60.22
2022-12-04T12:37:41.450Z,60.22
2022-12-04T12:40:26.358Z,59.83
2022-12-04T12:43:02.655Z,60.08
2022-12-04T12:45:41.808Z,59.86
2022-12-04T12:48:24.431Z,59.60
2022-12-04T12:51:21.980Z,59.63
2022-12-04T12:53:54.378Z,59.44
2022-12-04T12:56:32.981Z,59.52
2022-12-04T12:59:05.164Z,59.53
2022-12-04T13:01:44.599Z,59.61
2022-12-04T13:04:21.700Z,59.58
2022-12-04T13:07:15.730Z,59.39
2022-12-04T13:09:54.079Z,59.56
2022-12-04T13:12:23.688Z,59.68
2022-12-04T13:14:54.223Z,59.62
2022-12-04T13:17:31.871Z,59.75
2022-12-04T13:20:10.216Z,59.65
2022-12-04T13:22:53.462Z,60.03
2022-12-04T13:25:43.275Z,60.05
2022-12-04T13:28:27.709Z,59.85
2022-12-04T13:31:06.068Z,60.04
2022-12-04T13:34:00.601Z,60.11
2022-12-04T13:36:47.230Z,60.28
2022-12-04T13:39:59.119Z,60.27
2022-12-04T13:42:31.365Z,60.44
2022-12-04T13:45:06.375Z,60.73
2022-12-04T13:47:38.066Z,60.77
2022-12-04T13:50:29.777Z,60.81
2022-12-04T13:53:01.651Z,60.79
2022-12-04T13:55:36.193Z,61.02
2022-12-04T13:58:28.772Z,61.28
2022-12-04T14:01:06.142Z,61.78
2022-12-04T14:03:46.799Z,61.89
2022-12-04T14:06:27.072Z,62.00
2022-12-04T14:09:05.146Z,61.87
2022-12-04T14:11:46.703Z,61.84
2022-12-04T14:14:29.248Z,61.60
2022-12-04T14:17:01.549Z,61.63
2022-12-04T14:19:36.962Z,61.45
2022-12-04T14:22:07.696Z,61.37
2022-12-04T14:24:40.260Z,61.16
2022-12-04T14:27:36.393Z,61.35
2022-12-04T14:30:16.814Z,61.46
2022-12-04T14:32:48.111Z,61.42
2022-12-04T14:35:21.510Z,61.49
2022-12-04T14:37:57.172Z,61.59
2022-12-04T14:40:29.545Z,61.66
2022-12-04T14:43:01.310Z,61.79
2022-12-04T14:45:40.058Z,61.99
2022-12-04T14:48:19.451Z,62.01
2022-12-04T14:50:54.890Z,62.24
2022-12-04T14:53:36.689Z,62.47
2022-12-04T14:56:24.521Z,62.58
2022-12-04T14:58:55.680Z,62.89
2022-12-04T15:01:29.649Z,62.62
2022-12-04T15:04:08.740Z,62.86
2022-12-04T15:06:42.101Z,62.97
2022-12-04T15:09:38.404Z,63.55
2022-12-04T15:12:34.951Z,63.56
2022-12-04T15:15:15.139Z,64.04
2022-12-04T15:17:56.185Z,63.90
2022-12-04T15:20:27.442Z,63.82
2022-12-04T15:22:58.981Z,64.17
2022-12-04T15:25:34.043Z,63.89
2022-12-04T15:28:12.160Z,64.02
2022-12-04T15:30:45.085Z,63.94
2022-12-04T15:33:21.546Z,63.94
2022-12-04T15:35:57.372Z,63.92
2022-12-04T15:38:28.405Z,64.39
2022-12-04T15:41:01.081Z,64.14
2022-12-04T15:43:34.260Z,64.43
2022-12-04T15:46:15.548Z,63.88
2022-12-04T15:48:47.949Z,64.18
2022-12-04T15:51:21.728Z,64.18
2022-12-04T15:53:52.199Z,64.36
2022-12-04T15:56:25.558Z,64.49
2022-12-04T15:59:00.732Z,64.31
2022-12-04T16:01:41.070Z,64.37
2022-12-04T16:04:23.163Z,64.34
2022-12-04T16:06:54.850Z,64.21
2022-12-04T16:09:26.775Z,64.81
2022-12-04T16:12:03.727Z,64.89
2022-12-04T16:14:34.203Z,64.79
2022-12-04T16:17:06.481Z,65.28
2022-12-04T16:19:39.798Z,64.89
2022-12-04T16:22:20.563Z,65.12
2022-12-04T16:24:51.561Z,64.89
2022-12-04T16:27:24.663Z,64.81
2022-12-04T16:29:55.644Z,65.15
2022-12-04T16:32:31.263Z,64.98
2022-12-04T16:35:02.243Z,65.38
2022-12-04T16:37:32.941Z,65.43
2022-12-04T16:40:06.561Z,65.38
2022-12-04T16:42:37.017Z,65.44
2022-12-04T16:45:23.369Z,65.20
2022-12-04T16:47:53.874Z,65.59
2022-12-04T16:50:24.419Z,65.53
2022-12-04T16:52:55.336Z,65.82
2022-12-04T16:55:30.582Z,66.09
2022-12-04T16:58:02.852Z,65.87
2022-12-04T17:00:33.795Z,65.97
2022-12-04T17:03:05.256Z,66.12
2022-12-04T17:05:36.023Z,66.10
2022-12-04T17:08:06.789Z,66.39
2022-12-04T17:10:37.305Z,66.52
2022-12-04T17:13:07.770Z,66.81
2022-12-04T17:15:38.618Z,66.73
2022-12-04T17:18:12.927Z,66.74
2022-12-04T17:20:47.117Z,66.79
2022-12-04T17:23:17.574Z,66.71
2022-12-04T17:25:48.015Z,66.62
2022-12-04T17:28:18.648Z,66.60
2022-12-04T17:30:49.382Z,66.50
2022-12-04T17:33:19.803Z,66.63
2022-12-04T17:35:50.831Z,66.77
2022-12-04T17:38:21.371Z,66.56
2022-12-04T17:41:02.093Z,66.41
2022-12-04T17:43:33.631Z,66.54
2022-12-04T17:46:09.403Z,66.61
2022-12-04T17:48:40.103Z,66.72
2022-12-04T17:51:12.963Z,66.91
2022-12-04T17:53:43.821Z,66.96
2022-12-04T17:56:17.200Z,66.88
2022-12-04T17:58:48.258Z,66.97
2022-12-04T18:01:21.567Z,67.00
2022-12-04T18:03:54.597Z,67.17
2022-12-04T18:06:29.006Z,67.05
2022-12-04T18:08:59.869Z,67.27
2022-12-04T18:11:32.802Z,67.07
2022-12-04T18:14:10.284Z,67.27
2022-12-04T18:16:44.777Z,66.99
2022-12-04T18:19:16.238Z,67.01
2022-12-04T18:21:46.908Z,67.49
2022-12-04T18:24:18.122Z,67.16
2022-12-04T18:26:50.065Z,67.37
2022-12-04T18:29:22.570Z,67.15
2022-12-04T18:31:53.468Z,67.19
2022-12-04T18:34:24.442Z,67.02
2022-12-04T18:36:55.010Z,66.99
2022-12-04T18:39:27.593Z,67.42
2022-12-04T18:41:58.620Z,67.33
2022-12-04T18:44:29.523Z,67.39
2022-12-04T18:46:59.932Z,67.21
2022-12-04T18:49:30.415Z,67.54
2022-12-04T18:52:01.248Z,67.61
2022-12-04T18:54:31.710Z,67.86
2022-12-04T18:57:03.201Z,67.59
2022-12-04T18:59:33.830Z,67.69
2022-12-04T19:02:04.873Z,67.75
2022-12-04T19:04:35.524Z,67.45
2022-12-04T19:07:06.135Z,67.56
2022-12-04T19:10:09.343Z,67.63
2022-12-04T19:12:28.087Z,67.32
2022-12-04T19:14:58.547Z,67.18
2022-12-04T19:17:29.041Z,67.12
2022-12-04T19:19:59.781Z,67.33
2022-12-04T19:22:31.394Z,67.41
2022-12-04T19:25:01.962Z,67.45
2022-12-04T19:27:32.449Z,67.19
2022-12-04T19:30:02.902Z,67.40
2022-12-04T19:32:33.536Z,67.27
2022-12-04T19:35:04.146Z,67.35
2022-12-04T19:37:39.620Z,67.18
2022-12-04T19:40:14.748Z,67.28
2022-12-04T19:42:45.152Z,67.71
2022-12-04T19:45:15.935Z,67.82
2022-12-04T19:47:46.422Z,67.43
2022-12-04T19:50:16.833Z,67.79
2022-12-04T19:52:47.296Z,67.67
2022-12-04T19:55:17.802Z,68.02
2022-12-04T19:57:48.230Z,67.85
2022-12-04T20:00:20.167Z,67.78
2022-12-04T20:02:50.742Z,67.48
2022-12-04T20:05:21.363Z,67.67
2022-12-04T20:07:51.975Z,67.57
2022-12-04T20:10:22.851Z,67.70
2022-12-04T20:12:53.285Z,67.55
2022-12-04T20:15:23.960Z,67.60
2022-12-04T20:17:54.390Z,67.62
2022-12-04T20:20:24.983Z,67.63
2022-12-04T20:22:55.847Z,67.52
2022-12-04T20:25:26.459Z,67.52
2022-12-04T20:27:57.191Z,67.64
2022-12-04T20:30:28.946Z,67.77
2022-12-04T20:32:59.640Z,67.95
2022-12-04T20:35:30.129Z,68.32
2022-12-04T20:38:00.558Z,68.48
2022-12-04T20:40:31.167Z,68.29
2022-12-04T20:43:01.617Z,68.27
2022-12-04T20:45:33.353Z,68.30
2022-12-04T20:48:03.835Z,68.38
2022-12-04T20:50:34.742Z,68.19
2022-12-04T20:53:05.184Z,68.26
2022-12-04T20:55:35.600Z,68.22
2022-12-04T20:58:06.177Z,67.93
2022-12-04T21:00:37.709Z,67.93
2022-12-04T21:03:08.176Z,67.73
2022-12-04T21:05:38.734Z,68.19
2022-12-04T21:08:09.485Z,68.04
2022-12-04T21:10:40.028Z,68.04
2022-12-04T21:13:43.261Z,67.98
2022-12-04T21:16:13.786Z,68.03
2022-12-04T21:18:44.235Z,68.29
2022-12-04T21:21:14.776Z,68.35
2022-12-04T21:23:45.300Z,68.52
2022-12-04T21:26:16.135Z,68.59
2022-12-04T21:28:46.562Z,68.64
2022-12-04T21:31:17.107Z,68.63
2022-12-04T21:33:47.728Z,68.60
2022-12-04T21:36:18.684Z,68.63
2022-12-04T21:38:49.161Z,68.90
2022-12-04T21:41:34.079Z,68.63
2022-12-04T21:44:06.616Z,68.79
2022-12-04T21:46:37.624Z,69.10
2022-12-04T21:49:08.617Z,68.75
2022-12-04T21:51:56.921Z,69.01
2022-12-04T21:54:29.038Z,69.24
2022-12-04T21:57:00.179Z,69.27
2022-12-04T21:59:30.886Z,69.09
2022-12-04T22:02:01.931Z,69.31
2022-12-04T22:04:32.650Z,69.04
2022-12-04T22:07:03.197Z,69.09
2022-12-04T22:09:33.953Z,69.06
2022-12-04T22:12:26.298Z,69.13
2022-12-04T22:14:55.696Z,69.48
2022-12-04T22:17:29.606Z,69.50
2022-12-04T22:20:00.147Z,69.15
2022-12-04T22:22:30.837Z,69.16
2022-12-04T22:25:01.743Z,69.15
2022-12-04T22:27:32.384Z,69.00
2022-12-04T22:30:03.171Z,69.38
2022-12-04T22:32:33.797Z,69.20
2022-12-04T22:35:04.374Z,69.27
2022-12-04T22:37:37.476Z,69.10
2022-12-04T22:40:12.545Z,69.13
2022-12-04T22:42:43.317Z,69.33
2022-12-04T22:45:14.343Z,68.99
2022-12-04T22:47:44.871Z,69.19
2022-12-04T22:50:15.367Z,69.67
2022-12-04T22:52:45.829Z,69.87
2022-12-04T22:55:16.231Z,69.94
2022-12-04T22:57:46.645Z,70.14
2022-12-04T23:00:18.196Z,70.08
2022-12-04T23:02:48.935Z,70.12
2022-12-04T23:05:19.484Z,70.11
2022-12-04T23:07:49.962Z,70.17
2022-12-04T23:10:20.674Z,70.24
2022-12-04T23:12:51.089Z,70.26
2022-12-04T23:15:22.340Z,70.21
2022-12-04T23:17:52.837Z,69.83
2022-12-04T23:20:23.342Z,70.29
2022-12-04T23:22:55.769Z,70.36
2022-12-04T23:25:26.189Z,70.12
2022-12-04T23:27:57.014Z,70.09
2022-12-04T23:30:30.535Z,69.73
2022-12-04T23:33:03.055Z,70.14
2022-12-04T23:35:33.778Z,70.46
2022-12-04T23:38:04.157Z,70.16
2022-12-04T23:40:34.591Z,70.17
2022-12-04T23:43:05.025Z,70.23
2022-12-04T23:45:35.469Z,70.34
2022-12-04T23:48:06.634Z,70.57
2022-12-04T23:50:37.334Z,70.57
2022-12-04T23:53:07.830Z,70.82
2022-12-04T23:55:38.378Z,70.68
2022-12-04T23:58:08.829Z,70.49
